createdAt,value
2023-08-20T00:00:53.511Z,27.02
2023-08-20T00:01:53.496Z,27.02
2023-08-20T00:02:53.509Z,27.02
2023-08-20T00:03:53.479Z,27.00
2023-08-20T00:04:53.479Z,27.00
2023-08-20T00:05:53.380Z,27.00
2023-08-20T00:06:53.463Z,27.00
2023-08-20T00:07:53.352Z,26.99
2023-08-20T00:08:53.448Z,26.99
2023-08-20T00:09:53.336Z,27.02
2023-08-20T00:10:53.397Z,27.00
2023-08-20T00:11:53.311Z,27.02
2023-08-20T00:12:53.381Z,27.00
2023-08-20T00:13:53.288Z,26.99
2023-08-20T00:14:53.366Z,26.99
2023-08-20T00:15:53.275Z,27.00
2023-08-20T00:16:53.579Z,26.99
2023-08-20T00:17:53.255Z,27.00
2023-08-20T00:18:53.349Z,27.00
2023-08-20T00:19:53.391Z,27.00
2023-08-20T00:20:53.287Z,27.00
2023-08-20T00:21:53.205Z,27.02
2023-08-20T00:22:53.275Z,26.99
2023-08-20T00:23:53.183Z,27.00
2023-08-20T00:24:53.249Z,27.00
2023-08-20T00:25:53.198Z,27.00
2023-08-20T00:26:53.238Z,27.00
2023-08-20T00:27:53.145Z,26.97
2023-08-20T00:28:53.440Z,26.99
2023-08-20T00:29:53.128Z,26.99
2023-08-20T00:30:53.184Z,26.99
2023-08-20T00:31:53.199Z,27.00
2023-08-20T00:32:53.203Z,27.00
2023-08-20T00:34:04.954Z,26.99
2023-08-20T00:34:53.142Z,26.99
2023-08-20T00:35:53.056Z,27.00
2023-08-20T00:36:53.131Z,26.99
2023-08-20T00:37:53.034Z,26.97
2023-08-20T00:38:53.101Z,26.97
2023-08-20T00:39:53.020Z,26.97
2023-08-20T00:40:53.090Z,26.97
2023-08-20T00:41:52.994Z,26.97
2023-08-20T00:42:53.071Z,26.99
2023-08-20T00:43:52.977Z,26.99
2023-08-20T00:44:53.140Z,26.99
2023-08-20T00:45:52.988Z,26.97
2023-08-20T00:46:53.024Z,26.97
2023-08-20T00:47:53.030Z,26.96
2023-08-20T00:48:52.998Z,26.97
2023-08-20T00:49:52.911Z,26.96
2023-08-20T00:50:52.974Z,26.99
2023-08-20T00:51:52.888Z,26.97
2023-08-20T00:52:52.955Z,26.97
2023-08-20T00:53:52.872Z,26.96
2023-08-20T00:54:52.941Z,26.96
2023-08-20T00:55:52.847Z,26.95
2023-08-20T00:56:52.912Z,26.96
2023-08-20T00:57:52.841Z,26.99
2023-08-20T00:58:52.898Z,26.96
2023-08-20T00:59:52.804Z,26.96
2023-08-20T01:00:52.914Z,26.97
2023-08-20T01:01:52.794Z,26.96
2023-08-20T01:02:52.927Z,26.97
2023-08-20T01:03:52.761Z,26.96
2023-08-20T01:04:52.857Z,26.97
2023-08-20T01:05:52.740Z,26.96
2023-08-20T01:06:52.968Z,26.96
2023-08-20T01:07:52.756Z,26.95
2023-08-20T01:08:52.784Z,26.96
2023-08-20T01:09:52.708Z,26.96
2023-08-20T01:10:52.766Z,26.95
2023-08-20T01:11:52.677Z,26.96
2023-08-20T01:12:52.808Z,26.97
2023-08-20T01:13:52.655Z,26.97
2023-08-20T01:14:52.723Z,26.96
2023-08-20T01:15:52.662Z,26.96
2023-08-20T01:16:52.698Z,26.95
2023-08-20T01:17:52.741Z,26.96
2023-08-20T01:18:52.683Z,26.96
2023-08-20T01:19:52.593Z,26.96
2023-08-20T01:20:52.670Z,26.96
2023-08-20T01:21:52.578Z,26.96
2023-08-20T01:22:52.641Z,26.96
2023-08-20T01:23:52.546Z,26.96
2023-08-20T01:24:52.629Z,26.96
2023-08-20T01:25:52.531Z,26.95
2023-08-20T01:26:52.594Z,26.97
2023-08-20T01:27:52.512Z,26.96
2023-08-20T01:28:52.574Z,26.95
2023-08-20T01:29:52.492Z,26.93
2023-08-20T01:30:52.565Z,26.93
2023-08-20T01:31:52.465Z,26.96
2023-08-20T01:32:52.541Z,26.95
2023-08-20T01:33:52.444Z,26.96
2023-08-20T01:34:52.549Z,26.97
2023-08-20T01:35:52.431Z,26.95
2023-08-20T01:36:52.497Z,26.95
2023-08-20T01:37:52.416Z,26.96
2023-08-20T01:38:52.495Z,26.95
2023-08-20T01:39:52.385Z,26.96
2023-08-20T01:40:52.461Z,26.95
2023-08-20T01:41:52.362Z,26.95
2023-08-20T01:42:52.428Z,26.95
2023-08-20T01:43:52.338Z,26.95
2023-08-20T01:44:52.411Z,26.95
2023-08-20T01:45:52.316Z,26.95
2023-08-20T01:46:52.426Z,26.95
2023-08-20T01:47:52.326Z,26.95
2023-08-20T01:48:52.377Z,26.95
2023-08-20T01:49:52.275Z,26.93
2023-08-20T01:50:52.348Z,26.95
2023-08-20T01:51:52.260Z,26.96
2023-08-20T01:52:52.421Z,26.95
2023-08-20T01:53:52.236Z,26.96
2023-08-20T01:54:52.299Z,26.95
2023-08-20T01:55:52.215Z,26.95
2023-08-20T01:56:52.283Z,26.95
2023-08-20T01:57:52.193Z,26.93
2023-08-20T01:58:52.255Z,26.95
2023-08-20T01:59:52.168Z,26.92
2023-08-20T02:00:52.265Z,26.95
2023-08-20T02:01:52.171Z,26.95
2023-08-20T02:02:52.263Z,26.93
2023-08-20T02:03:52.130Z,26.95
2023-08-20T02:04:52.210Z,26.95
2023-08-20T02:05:52.293Z,26.95
2023-08-20T02:06:52.107Z,26.95
2023-08-20T02:07:52.152Z,26.95
2023-08-20T02:08:52.089Z,26.93
2023-08-20T02:09:52.143Z,26.95
2023-08-20T02:10:52.064Z,26.95
2023-08-20T02:11:52.116Z,26.93
2023-08-20T02:12:52.045Z,26.92
2023-08-20T02:13:52.085Z,26.93
2023-08-20T02:14:52.030Z,26.93
2023-08-20T02:15:52.072Z,26.92
2023-08-20T02:16:52.031Z,26.93
2023-08-20T02:17:52.077Z,26.92
2023-08-20T02:18:51.983Z,26.92
2023-08-20T02:19:52.041Z,26.93
2023-08-20T02:20:51.972Z,26.93
2023-08-20T02:21:52.005Z,26.93
2023-08-20T02:22:51.943Z,26.93
2023-08-20T02:23:51.989Z,26.92
2023-08-20T02:24:51.925Z,26.93
2023-08-20T02:25:52.189Z,26.93
2023-08-20T02:26:51.902Z,26.92
2023-08-20T02:27:51.943Z,26.92
2023-08-20T02:28:51.882Z,26.92
2023-08-20T02:29:51.934Z,26.93
2023-08-20T02:30:51.936Z,26.92
2023-08-20T02:31:51.906Z,26.93
2023-08-20T02:32:51.884Z,26.92
2023-08-20T02:33:51.895Z,26.92
2023-08-20T02:34:51.879Z,26.93
2023-08-20T02:35:51.864Z,26.92
2023-08-20T02:36:51.788Z,26.90
2023-08-20T02:37:51.888Z,26.93
2023-08-20T02:38:51.770Z,26.92
2023-08-20T02:39:51.832Z,26.92
2023-08-20T02:40:51.746Z,26.93
2023-08-20T02:41:51.821Z,26.89
2023-08-20T02:42:51.724Z,26.93
2023-08-20T02:43:51.957Z,26.90
2023-08-20T02:44:51.710Z,26.92
2023-08-20T02:45:51.801Z,26.90
2023-08-20T02:46:51.688Z,26.89
2023-08-20T02:47:51.769Z,26.92
2023-08-20T02:48:51.672Z,26.90
2023-08-20T02:49:51.755Z,26.90
2023-08-20T02:50:51.722Z,26.89
2023-08-20T02:51:51.725Z,26.90
2023-08-20T02:52:51.633Z,26.90
2023-08-20T02:53:51.694Z,26.90
2023-08-20T02:54:51.602Z,26.92
2023-08-20T02:55:51.669Z,26.90
2023-08-20T02:56:51.583Z,26.88
2023-08-20T02:57:51.851Z,26.90
2023-08-20T02:58:51.575Z,26.90
2023-08-20T02:59:51.643Z,26.90
2023-08-20T03:00:51.544Z,26.90
2023-08-20T03:01:51.655Z,26.89
2023-08-20T03:02:51.559Z,26.90
2023-08-20T03:03:51.592Z,26.92
2023-08-20T03:04:51.570Z,26.89
2023-08-20T03:05:51.569Z,26.89
2023-08-20T03:06:51.480Z,26.90
2023-08-20T03:07:51.741Z,26.89
2023-08-20T03:08:51.476Z,26.90
2023-08-20T03:09:51.536Z,26.90
2023-08-20T03:10:51.443Z,26.90
2023-08-20T03:11:51.530Z,26.89
2023-08-20T03:12:51.418Z,26.88
2023-08-20T03:13:51.485Z,26.89
2023-08-20T03:14:51.403Z,26.90
2023-08-20T03:15:51.522Z,26.89
2023-08-20T03:16:51.397Z,26.90
2023-08-20T03:17:51.466Z,26.89
2023-08-20T03:18:51.361Z,26.88
2023-08-20T03:19:51.436Z,26.89
2023-08-20T03:20:51.342Z,26.88
2023-08-20T03:21:51.414Z,26.89
2023-08-20T03:22:51.332Z,26.89
2023-08-20T03:23:51.393Z,26.90
2023-08-20T03:24:51.302Z,26.89
2023-08-20T03:25:51.373Z,26.88
2023-08-20T03:26:51.285Z,26.89
2023-08-20T03:27:51.343Z,26.90
2023-08-20T03:28:51.281Z,26.89
2023-08-20T03:29:51.347Z,26.88
2023-08-20T03:30:51.249Z,26.89
2023-08-20T03:31:51.333Z,26.89
2023-08-20T03:32:51.272Z,26.84
2023-08-20T03:33:51.281Z,26.90
2023-08-20T03:34:51.224Z,26.90
2023-08-20T03:35:51.489Z,26.89
2023-08-20T03:36:51.179Z,26.88
2023-08-20T03:37:51.249Z,26.89
2023-08-20T03:38:51.153Z,26.88
2023-08-20T03:39:51.223Z,26.89
2023-08-20T03:40:51.146Z,26.88
2023-08-20T03:41:51.361Z,26.88
2023-08-20T03:42:51.117Z,26.89
2023-08-20T03:43:51.192Z,26.84
2023-08-20T03:44:51.094Z,26.88
2023-08-20T03:45:51.215Z,26.84
2023-08-20T03:46:51.074Z,26.84
2023-08-20T03:47:51.363Z,26.88
2023-08-20T03:48:51.082Z,26.89
2023-08-20T03:49:51.115Z,26.88
2023-08-20T03:50:51.031Z,26.88
2023-08-20T03:51:51.090Z,26.84
2023-08-20T03:52:51.010Z,26.88
2023-08-20T03:53:51.095Z,26.84
2023-08-20T03:54:50.989Z,26.84
2023-08-20T03:55:51.056Z,26.84
2023-08-20T03:56:50.917Z,26.83
2023-08-20T03:57:50.993Z,26.88
2023-08-20T03:58:50.892Z,26.89
2023-08-20T03:59:50.962Z,26.88
2023-08-20T04:00:50.878Z,26.88
2023-08-20T04:01:50.944Z,26.88
2023-08-20T04:02:50.912Z,26.84
2023-08-20T04:03:50.964Z,26.88
2023-08-20T04:04:50.838Z,26.84
2023-08-20T04:05:50.911Z,26.84
2023-08-20T04:06:50.815Z,26.83
2023-08-20T04:07:50.880Z,26.84
2023-08-20T04:08:50.812Z,26.88
2023-08-20T04:09:50.942Z,26.84
2023-08-20T04:10:50.781Z,26.84
2023-08-20T04:11:50.851Z,26.83
2023-08-20T04:12:50.753Z,26.84
2023-08-20T04:13:50.830Z,26.82
2023-08-20T04:14:50.736Z,26.84
2023-08-20T04:15:50.865Z,26.84
2023-08-20T04:16:50.715Z,26.84
2023-08-20T04:17:50.804Z,26.84
2023-08-20T04:18:50.687Z,26.83
2023-08-20T04:19:50.756Z,26.84
2023-08-20T04:20:50.686Z,26.84
2023-08-20T04:21:50.915Z,26.83
2023-08-20T04:22:50.647Z,26.84
2023-08-20T04:23:50.721Z,26.88
2023-08-20T04:24:50.625Z,26.84
2023-08-20T04:25:50.713Z,26.84
2023-08-20T04:26:50.615Z,26.84
2023-08-20T04:27:50.673Z,26.84
2023-08-20T04:28:50.583Z,26.88
2023-08-20T04:29:50.651Z,26.84
2023-08-20T04:30:50.649Z,26.84
2023-08-20T04:31:50.660Z,26.84
2023-08-20T04:32:50.559Z,26.84
2023-08-20T04:33:50.617Z,26.88
2023-08-20T04:34:50.534Z,26.84
2023-08-20T04:35:50.585Z,26.88
2023-08-20T04:36:50.501Z,26.88
2023-08-20T04:37:50.565Z,26.88
2023-08-20T04:38:50.482Z,26.84
2023-08-20T04:39:50.572Z,26.89
2023-08-20T04:40:50.464Z,26.89
2023-08-20T04:41:50.531Z,26.89
2023-08-20T04:42:50.436Z,26.88
2023-08-20T04:43:50.515Z,26.90
2023-08-20T04:44:50.425Z,26.88
2023-08-20T04:45:50.490Z,26.90
2023-08-20T04:46:50.451Z,26.90
2023-08-20T04:47:50.487Z,26.92
2023-08-20T04:48:50.425Z,26.92
2023-08-20T04:49:50.440Z,26.93
2023-08-20T04:50:50.354Z,26.92
2023-08-20T04:51:50.423Z,26.90
2023-08-20T04:52:50.335Z,26.92
2023-08-20T04:53:50.400Z,26.92
2023-08-20T04:54:50.315Z,26.93
2023-08-20T04:55:50.393Z,26.93
2023-08-20T04:56:50.299Z,26.90
2023-08-20T04:57:50.357Z,26.95
2023-08-20T04:58:50.268Z,26.96
2023-08-20T04:59:50.344Z,26.95
2023-08-20T05:00:50.284Z,26.95
2023-08-20T05:01:50.326Z,26.96
2023-08-20T05:02:50.308Z,26.96
2023-08-20T05:03:50.402Z,26.96
2023-08-20T05:04:50.216Z,26.97
2023-08-20T05:05:50.285Z,26.97
2023-08-20T05:06:50.194Z,27.00
2023-08-20T05:07:50.261Z,27.00
2023-08-20T05:08:50.165Z,27.00
2023-08-20T05:09:50.235Z,27.02
2023-08-20T05:10:50.144Z,27.03
2023-08-20T05:11:50.217Z,27.02
2023-08-20T05:12:50.125Z,27.03
2023-08-20T05:13:50.199Z,27.02
2023-08-20T05:14:50.122Z,27.05
2023-08-20T05:15:50.178Z,27.07
2023-08-20T05:16:50.109Z,27.05
2023-08-20T05:17:50.165Z,27.07
2023-08-20T05:18:50.065Z,27.10
2023-08-20T05:19:50.137Z,27.10
2023-08-20T05:20:50.048Z,27.11
2023-08-20T05:21:50.106Z,27.12
2023-08-20T05:22:50.030Z,27.14
2023-08-20T05:23:50.089Z,27.14
2023-08-20T05:24:49.998Z,27.15
2023-08-20T05:25:50.065Z,27.18
2023-08-20T05:26:49.981Z,27.21
2023-08-20T05:27:50.066Z,27.22
2023-08-20T05:28:49.966Z,27.27
2023-08-20T05:29:50.036Z,27.32
2023-08-20T05:30:49.979Z,27.37
2023-08-20T05:31:50.003Z,27.40
2023-08-20T05:32:49.973Z,27.45
2023-08-20T05:33:50.004Z,27.51
2023-08-20T05:34:49.897Z,27.55
2023-08-20T05:35:49.965Z,27.58
2023-08-20T05:36:49.878Z,27.62
2023-08-20T05:37:49.947Z,27.69
2023-08-20T05:38:49.860Z,27.73
2023-08-20T05:39:49.923Z,27.76
2023-08-20T05:40:49.841Z,27.82
2023-08-20T05:41:49.918Z,27.85
2023-08-20T05:42:52.217Z,27.91
2023-08-20T05:43:49.885Z,27.92
2023-08-20T05:44:49.800Z,27.97
2023-08-20T05:45:49.902Z,28.00
2023-08-20T05:46:49.776Z,28.04
2023-08-20T05:47:49.873Z,28.09
2023-08-20T05:48:49.756Z,28.13
2023-08-20T05:49:49.827Z,28.18
2023-08-20T05:50:49.734Z,28.22
2023-08-20T05:51:49.810Z,28.25
2023-08-20T05:52:49.719Z,28.30
2023-08-20T05:53:49.784Z,28.33
2023-08-20T05:54:49.700Z,28.29
2023-08-20T05:55:49.778Z,28.29
2023-08-20T05:56:49.683Z,28.30
2023-08-20T05:57:49.740Z,28.32
2023-08-20T05:58:49.655Z,28.33
2023-08-20T05:59:49.729Z,28.35
2023-08-20T06:00:49.637Z,28.35
2023-08-20T06:01:49.732Z,28.37
2023-08-20T06:02:49.642Z,28.41
2023-08-20T06:03:49.682Z,28.42
2023-08-20T06:04:49.601Z,28.44
2023-08-20T06:05:49.844Z,28.47
2023-08-20T06:06:49.640Z,28.52
2023-08-20T06:07:49.675Z,28.57
2023-08-20T06:09:06.688Z,28.59
2023-08-20T06:09:49.638Z,28.62
2023-08-20T06:10:49.540Z,28.67
2023-08-20T06:11:49.604Z,28.72
2023-08-20T06:12:49.535Z,28.78
2023-08-20T06:13:49.589Z,28.88
2023-08-20T06:14:49.507Z,28.94
2023-08-20T06:15:49.579Z,29.01
2023-08-20T06:16:49.482Z,29.11
2023-08-20T06:17:49.582Z,29.16
2023-08-20T06:18:50.734Z,29.19
2023-08-20T06:19:49.559Z,29.21
2023-08-20T06:20:49.456Z,29.23
2023-08-20T06:21:49.513Z,29.30
2023-08-20T06:22:49.419Z,29.34
2023-08-20T06:23:49.489Z,29.38
2023-08-20T06:24:49.401Z,29.46
2023-08-20T06:25:49.473Z,29.50
2023-08-20T06:26:49.382Z,29.55
2023-08-20T06:27:49.449Z,29.59
2023-08-20T06:28:49.376Z,29.59
2023-08-20T06:29:49.424Z,29.64
2023-08-20T06:30:49.338Z,29.64
2023-08-20T06:31:49.470Z,29.64
2023-08-20T06:32:49.365Z,29.65
2023-08-20T06:33:49.402Z,29.71
2023-08-20T06:34:49.300Z,29.71
2023-08-20T06:35:49.363Z,29.76
2023-08-20T06:36:49.279Z,29.76
2023-08-20T06:37:49.351Z,29.79
2023-08-20T06:38:49.274Z,29.79
2023-08-20T06:39:49.331Z,29.81
2023-08-20T06:40:49.244Z,29.81
2023-08-20T06:41:49.306Z,29.79
2023-08-20T06:42:49.226Z,29.78
2023-08-20T06:43:49.285Z,29.76
2023-08-20T06:44:49.216Z,29.79
2023-08-20T06:45:49.318Z,29.81
2023-08-20T06:46:49.200Z,29.79
2023-08-20T06:47:49.264Z,29.78
2023-08-20T06:48:49.158Z,29.78
2023-08-20T06:49:49.221Z,29.76
2023-08-20T06:50:49.148Z,29.76
2023-08-20T06:51:49.205Z,29.76
2023-08-20T06:52:49.137Z,29.75
2023-08-20T06:53:49.170Z,29.76
2023-08-20T06:54:49.107Z,29.75
2023-08-20T06:55:49.149Z,29.75
2023-08-20T06:56:50.919Z,29.73
2023-08-20T06:57:49.150Z,29.73
2023-08-20T06:58:49.066Z,29.71
2023-08-20T06:59:49.106Z,29.68
2023-08-20T07:00:49.050Z,29.65
2023-08-20T07:01:49.118Z,29.64
2023-08-20T07:02:49.067Z,29.60
2023-08-20T07:03:49.073Z,29.62
2023-08-20T07:04:49.020Z,29.59
2023-08-20T07:05:49.047Z,29.59
2023-08-20T07:06:48.988Z,29.56
2023-08-20T07:07:49.028Z,29.53
2023-08-20T07:08:48.970Z,29.48
2023-08-20T07:09:49.013Z,29.38
2023-08-20T07:10:48.946Z,29.31
2023-08-20T07:11:49.721Z,29.22
2023-08-20T07:12:48.925Z,29.15
2023-08-20T07:13:48.967Z,29.07
2023-08-20T07:14:48.901Z,28.98
2023-08-20T07:15:48.973Z,28.93
2023-08-20T07:16:48.893Z,28.88
2023-08-20T07:17:48.943Z,28.81
2023-08-20T07:18:48.860Z,28.76
2023-08-20T07:19:48.914Z,28.74
2023-08-20T07:20:48.906Z,28.67
2023-08-20T07:21:48.882Z,28.64
2023-08-20T07:22:48.829Z,28.60
2023-08-20T07:23:48.876Z,28.56
2023-08-20T07:24:48.801Z,28.54
2023-08-20T07:25:48.854Z,28.48
2023-08-20T07:26:48.781Z,28.48
2023-08-20T07:27:48.829Z,28.45
2023-08-20T07:28:48.786Z,28.45
2023-08-20T07:29:48.803Z,28.44
2023-08-20T07:30:48.744Z,28.44
2023-08-20T07:31:48.825Z,28.42
2023-08-20T07:32:48.748Z,28.39
2023-08-20T07:33:48.771Z,28.39
2023-08-20T07:34:48.703Z,28.39
2023-08-20T07:35:48.739Z,28.39
2023-08-20T07:36:48.679Z,28.38
2023-08-20T07:37:48.909Z,28.38
2023-08-20T07:38:48.659Z,28.39
2023-08-20T07:39:48.721Z,28.39
2023-08-20T07:40:48.638Z,28.41
2023-08-20T07:41:48.684Z,28.39
2023-08-20T07:42:48.618Z,28.41
2023-08-20T07:43:48.671Z,28.39
2023-08-20T07:44:48.596Z,28.39
2023-08-20T07:45:48.681Z,28.39
2023-08-20T07:46:48.576Z,28.41
2023-08-20T07:47:48.634Z,28.41
2023-08-20T07:48:48.572Z,28.42
2023-08-20T07:49:48.609Z,28.41
2023-08-20T07:50:48.546Z,28.39
2023-08-20T07:51:48.579Z,28.42
2023-08-20T07:52:48.514Z,28.42
2023-08-20T07:53:48.570Z,28.42
2023-08-20T07:54:48.496Z,28.42
2023-08-20T07:55:48.538Z,28.42
2023-08-20T07:56:48.481Z,28.42
2023-08-20T07:57:48.520Z,28.42
2023-08-20T07:58:48.465Z,28.39
2023-08-20T07:59:48.505Z,28.41
2023-08-20T08:00:48.457Z,28.39
2023-08-20T08:01:48.539Z,28.38
2023-08-20T08:02:48.428Z,28.41
2023-08-20T08:03:48.533Z,28.37
2023-08-20T08:04:48.401Z,28.39
2023-08-20T08:05:48.454Z,28.41
2023-08-20T08:06:48.387Z,28.39
2023-08-20T08:07:48.419Z,28.39
2023-08-20T08:08:48.388Z,28.39
2023-08-20T08:09:48.413Z,28.39
2023-08-20T08:10:48.336Z,28.39
2023-08-20T08:11:48.389Z,28.39
2023-08-20T08:12:48.316Z,28.39
2023-08-20T08:13:48.362Z,28.41
2023-08-20T08:14:48.297Z,28.39
2023-08-20T08:15:48.337Z,28.39
2023-08-20T08:16:48.349Z,28.41
2023-08-20T08:17:48.353Z,28.41
2023-08-20T08:18:48.250Z,28.42
2023-08-20T08:19:48.296Z,28.42
2023-08-20T08:20:48.239Z,28.44
2023-08-20T08:21:48.283Z,28.42
2023-08-20T08:22:48.214Z,28.41
2023-08-20T08:23:48.255Z,28.42
2023-08-20T08:24:48.195Z,28.42
2023-08-20T08:25:48.238Z,28.41
2023-08-20T08:26:48.178Z,28.38
2023-08-20T08:27:59.605Z,28.37
2023-08-20T08:28:48.162Z,28.37
2023-08-20T08:29:48.196Z,28.37
2023-08-20T08:30:48.155Z,28.35
2023-08-20T08:31:48.190Z,28.35
2023-08-20T08:32:48.140Z,28.33
2023-08-20T08:33:48.341Z,28.32
2023-08-20T08:34:48.092Z,28.32
2023-08-20T08:35:48.136Z,28.30
2023-08-20T08:36:48.073Z,28.30
2023-08-20T08:37:48.124Z,28.30
2023-08-20T08:38:48.051Z,28.32
2023-08-20T08:39:48.104Z,28.29
2023-08-20T08:40:48.042Z,28.29
2023-08-20T08:41:48.074Z,28.30
2023-08-20T08:42:48.013Z,28.26
2023-08-20T08:43:48.059Z,28.29
2023-08-20T08:44:48.007Z,28.29
2023-08-20T08:45:48.045Z,28.26
2023-08-20T08:46:47.990Z,28.25
2023-08-20T08:47:48.096Z,28.25
2023-08-20T08:48:47.955Z,28.22
2023-08-20T08:49:48.007Z,28.24
2023-08-20T08:50:47.934Z,28.22
2023-08-20T08:51:47.981Z,28.21
2023-08-20T08:52:47.924Z,28.22
2023-08-20T08:53:47.957Z,28.22
2023-08-20T08:54:47.897Z,28.21
2023-08-20T08:55:47.971Z,28.21
2023-08-20T08:56:47.875Z,28.22
2023-08-20T08:57:47.925Z,28.21
2023-08-20T08:58:47.851Z,28.19
2023-08-20T08:59:47.914Z,28.18
2023-08-20T09:00:47.848Z,28.18
2023-08-20T09:01:47.874Z,28.18
2023-08-20T09:02:47.839Z,28.16
2023-08-20T09:03:47.860Z,28.14
2023-08-20T09:04:47.813Z,28.16
2023-08-20T09:05:47.849Z,28.14
2023-08-20T09:06:47.777Z,28.14
2023-08-20T09:07:47.823Z,28.14
2023-08-20T09:08:47.752Z,28.14
2023-08-20T09:09:47.810Z,28.14
2023-08-20T09:10:47.730Z,28.13
2023-08-20T09:11:47.775Z,28.13
2023-08-20T09:12:47.725Z,28.11
2023-08-20T09:13:47.750Z,28.13
2023-08-20T09:14:47.690Z,28.11
2023-08-20T09:15:47.731Z,28.10
2023-08-20T09:16:47.731Z,28.11
2023-08-20T09:17:47.736Z,28.11
2023-08-20T09:18:47.663Z,28.11
2023-08-20T09:19:47.691Z,28.11
2023-08-20T09:20:47.629Z,28.11
2023-08-20T09:21:47.704Z,28.11
2023-08-20T09:22:47.605Z,28.10
2023-08-20T09:23:47.726Z,28.10
2023-08-20T09:24:47.594Z,28.09
2023-08-20T09:25:47.632Z,28.07
2023-08-20T09:26:47.580Z,28.09
2023-08-20T09:27:47.609Z,28.09
2023-08-20T09:28:47.553Z,28.07
2023-08-20T09:29:47.599Z,28.07
2023-08-20T09:30:47.579Z,28.07
2023-08-20T09:31:47.578Z,28.07
2023-08-20T09:32:47.534Z,28.06
2023-08-20T09:33:47.558Z,28.04
2023-08-20T09:34:47.488Z,28.06
2023-08-20T09:35:47.539Z,28.04
2023-08-20T09:36:47.467Z,28.06
2023-08-20T09:37:47.512Z,28.04
2023-08-20T09:38:49.920Z,28.03
2023-08-20T09:39:47.502Z,28.03
2023-08-20T09:40:47.426Z,28.06
2023-08-20T09:41:47.668Z,28.03
2023-08-20T09:42:47.406Z,28.01
2023-08-20T09:43:47.460Z,28.04
2023-08-20T09:44:49.516Z,28.04
2023-08-20T09:45:47.446Z,28.03
2023-08-20T09:46:47.367Z,28.03
2023-08-20T09:47:47.440Z,28.03
2023-08-20T09:48:47.348Z,28.01
2023-08-20T09:49:47.396Z,28.00
2023-08-20T09:50:47.325Z,28.00
2023-08-20T09:51:47.395Z,28.00
2023-08-20T09:52:47.308Z,28.03
2023-08-20T09:53:47.354Z,28.01
2023-08-20T09:54:47.285Z,28.01
2023-08-20T09:55:47.328Z,28.00
2023-08-20T09:56:47.271Z,28.01
2023-08-20T09:57:47.312Z,28.01
2023-08-20T09:58:47.370Z,28.01
2023-08-20T09:59:47.290Z,28.00
2023-08-20T10:00:47.228Z,28.00
2023-08-20T10:01:47.298Z,28.01
2023-08-20T10:02:47.224Z,27.99
2023-08-20T10:03:47.410Z,28.00
2023-08-20T10:04:47.187Z,27.97
2023-08-20T10:05:47.252Z,27.99
2023-08-20T10:06:47.164Z,28.00
2023-08-20T10:07:47.211Z,27.97
2023-08-20T10:08:47.159Z,27.99
2023-08-20T10:09:47.214Z,27.99
2023-08-20T10:10:47.133Z,27.99
2023-08-20T10:11:47.166Z,27.99
2023-08-20T10:12:47.113Z,27.99
2023-08-20T10:13:47.156Z,27.99
2023-08-20T10:14:47.088Z,27.99
2023-08-20T10:15:47.177Z,27.99
2023-08-20T10:16:47.124Z,28.01
2023-08-20T10:17:47.496Z,27.99
2023-08-20T10:18:47.046Z,28.00
2023-08-20T10:19:47.098Z,27.99
2023-08-20T10:20:47.035Z,28.00
2023-08-20T10:21:47.102Z,27.99
2023-08-20T10:22:47.016Z,28.00
2023-08-20T10:23:47.058Z,27.97
2023-08-20T10:24:46.990Z,27.97
2023-08-20T10:25:47.038Z,27.97
2023-08-20T10:26:46.966Z,28.00
2023-08-20T10:27:47.037Z,28.00
2023-08-20T10:28:46.951Z,27.97
2023-08-20T10:29:47.058Z,27.99
2023-08-20T10:30:46.926Z,27.99
2023-08-20T10:31:46.999Z,27.99
2023-08-20T10:32:46.941Z,27.97
2023-08-20T10:33:46.946Z,27.97
2023-08-20T10:34:46.885Z,27.97
2023-08-20T10:35:46.928Z,27.99
2023-08-20T10:36:46.862Z,27.99
2023-08-20T10:37:47.918Z,27.97
2023-08-20T10:38:46.902Z,27.97
2023-08-20T10:39:46.816Z,27.99
2023-08-20T10:40:47.104Z,27.99
2023-08-20T10:41:46.801Z,27.97
2023-08-20T10:42:47.036Z,27.97
2023-08-20T10:43:46.779Z,27.95
2023-08-20T10:44:47.003Z,27.99
2023-08-20T10:45:46.806Z,27.97
2023-08-20T10:46:46.828Z,27.97
2023-08-20T10:47:46.808Z,27.99
2023-08-20T10:48:46.806Z,27.97
2023-08-20T10:49:46.717Z,27.97
2023-08-20T10:50:46.797Z,27.97
2023-08-20T10:51:46.701Z,27.95
2023-08-20T10:52:46.779Z,27.97
2023-08-20T10:53:46.680Z,27.97
2023-08-20T10:54:46.757Z,27.95
2023-08-20T10:55:46.661Z,27.97
2023-08-20T10:56:46.726Z,27.97
2023-08-20T10:57:46.646Z,27.97
2023-08-20T10:58:47.724Z,27.97
2023-08-20T10:59:46.683Z,27.97
2023-08-20T11:00:46.636Z,27.99
2023-08-20T11:01:46.675Z,27.97
2023-08-20T11:02:46.691Z,27.99
2023-08-20T11:03:46.705Z,27.97
2023-08-20T11:04:46.584Z,27.97
2023-08-20T11:05:46.634Z,27.95
2023-08-20T11:06:46.566Z,27.97
2023-08-20T11:07:46.604Z,27.95
2023-08-20T11:08:46.536Z,27.97
2023-08-20T11:09:46.602Z,27.95
2023-08-20T11:10:46.513Z,27.99
2023-08-20T11:11:46.575Z,27.97
2023-08-20T11:12:46.496Z,27.97
2023-08-20T11:13:46.629Z,27.97
2023-08-20T11:14:46.478Z,27.97
2023-08-20T11:15:46.548Z,27.95
2023-08-20T11:16:46.475Z,27.95
2023-08-20T11:17:48.397Z,27.97
2023-08-20T11:18:46.434Z,27.97
2023-08-20T11:19:55.241Z,27.97
2023-08-20T11:20:46.408Z,27.99
2023-08-20T11:21:46.473Z,27.99
2023-08-20T11:22:46.389Z,27.99
2023-08-20T11:23:48.405Z,27.97
2023-08-20T11:24:46.436Z,27.99
2023-08-20T11:25:46.441Z,27.99
2023-08-20T11:26:46.360Z,27.99
2023-08-20T11:27:46.411Z,27.97
2023-08-20T11:28:46.343Z,27.97
2023-08-20T11:29:48.274Z,27.97
2023-08-20T11:30:46.343Z,27.97
2023-08-20T11:31:46.396Z,27.97
2023-08-20T11:32:46.364Z,27.97
2023-08-20T11:33:46.357Z,27.97
2023-08-20T11:34:46.284Z,27.95
2023-08-20T11:35:46.335Z,27.97
2023-08-20T11:36:46.271Z,27.97
2023-08-20T11:37:46.319Z,27.97
2023-08-20T11:38:46.230Z,27.97
2023-08-20T11:39:46.297Z,27.97
2023-08-20T11:40:46.224Z,27.97
2023-08-20T11:41:46.284Z,27.97
2023-08-20T11:42:46.189Z,27.99
2023-08-20T11:43:46.255Z,27.97
2023-08-20T11:44:46.169Z,27.95
2023-08-20T11:45:46.249Z,27.97
2023-08-20T11:46:46.250Z,27.97
2023-08-20T11:47:46.263Z,27.97
2023-08-20T11:48:46.132Z,27.95
2023-08-20T11:49:46.201Z,27.97
2023-08-20T11:50:46.109Z,27.97
2023-08-20T11:51:46.484Z,27.97
2023-08-20T11:52:46.103Z,27.95
2023-08-20T11:53:46.160Z,27.99
2023-08-20T11:54:46.073Z,27.97
2023-08-20T11:55:46.370Z,27.97
2023-08-20T11:56:46.066Z,27.97
2023-08-20T11:57:46.118Z,27.97
2023-08-20T11:58:46.032Z,27.97
2023-08-20T11:59:46.098Z,27.97
2023-08-20T12:00:46.027Z,27.99
2023-08-20T12:01:46.073Z,27.97
2023-08-20T12:02:46.096Z,27.95
2023-08-20T12:03:46.359Z,27.95
2023-08-20T12:04:45.968Z,27.97
2023-08-20T12:05:46.037Z,27.97
2023-08-20T12:06:47.927Z,27.97
2023-08-20T12:07:46.026Z,27.94
2023-08-20T12:08:45.928Z,27.97
2023-08-20T12:09:46.275Z,27.97
2023-08-20T12:10:45.905Z,27.97
2023-08-20T12:11:45.970Z,27.95
2023-08-20T12:12:48.651Z,27.95
2023-08-20T12:13:45.961Z,27.97
2023-08-20T12:14:45.874Z,27.95
2023-08-20T12:15:45.934Z,27.97
2023-08-20T12:16:45.923Z,27.94
2023-08-20T12:17:45.927Z,27.97
2023-08-20T12:18:45.830Z,27.97
2023-08-20T12:19:45.923Z,27.95
2023-08-20T12:20:45.815Z,27.95
2023-08-20T12:21:45.881Z,27.95
2023-08-20T12:22:45.783Z,27.97
2023-08-20T12:23:45.864Z,27.94
2023-08-20T12:24:45.765Z,27.95
2023-08-20T12:25:45.830Z,27.95
2023-08-20T12:26:45.747Z,27.97
2023-08-20T12:27:45.806Z,27.97
2023-08-20T12:28:45.725Z,27.95
2023-08-20T12:29:45.797Z,27.95
2023-08-20T12:30:45.722Z,27.94
2023-08-20T12:31:45.771Z,27.94
2023-08-20T12:32:45.761Z,27.95
2023-08-20T12:33:45.763Z,27.95
2023-08-20T12:34:45.663Z,27.95
2023-08-20T12:35:45.745Z,27.97
2023-08-20T12:36:45.644Z,27.95
2023-08-20T12:37:45.713Z,27.95
2023-08-20T12:38:45.625Z,27.95
2023-08-20T12:39:45.692Z,27.95
2023-08-20T12:40:45.621Z,27.95
2023-08-20T12:41:45.683Z,27.95
2023-08-20T12:42:45.593Z,27.95
2023-08-20T12:43:45.661Z,27.94
2023-08-20T12:44:45.584Z,27.95
2023-08-20T12:45:45.644Z,27.94
2023-08-20T12:46:45.638Z,27.95
2023-08-20T12:47:45.681Z,27.94
2023-08-20T12:48:45.536Z,27.94
2023-08-20T12:49:45.594Z,27.94
2023-08-20T12:50:45.507Z,27.94
2023-08-20T12:51:45.601Z,27.95
2023-08-20T12:52:45.488Z,27.92